Blue Galaxy — SWDA — position and weather

sailwx.info

Track history (hours):
 
Tides and Currents Weather Stations Pressure Air Temp Water Temp Dewpoint Dewpoint Depression Visibility Wind Speed Wind Dir Waves Ship Positions

Blue Galaxy

Last reported at 2015-Jul-07 02:23 UTC. Time now 2015-Jul-07 06:49 UTC.
Position N 35°37' E 024°17'.

Length 192 m; draft 6.7 m.

Type: Passenger vessel. MMSI: 239672000.

Date/timePositionNaut miles runAvg speedWind from/ knotsBaromVisibWave heightAir tempDewpointWater temp
2015-Jul-07 02:23N 35°37' E 024°17'1720.0
2015-Jul-07 01:33N 35°53' E 024°12'10020.1
2015-Jul-06 20:33N 37°31' E 023°45'2020.1
2015-Jul-06 19:33N 37°50' E 023°37'7 6.7
2015-Jul-06 18:33N 37°57' E 023°38'0 0.0
2015-Jul-06 17:33N 37°57' E 023°38'0 0.0
2015-Jul-06 16:33N 37°57' E 023°38'0 0.0
2015-Jul-06 15:33N 37°57' E 023°38'0 0.0
2015-Jul-06 14:33N 37°57' E 023°38'0 0.0
2015-Jul-06 13:33N 37°57' E 023°38'0 0.0
2015-Jul-06 12:33N 37°57' E 023°38'0 0.0
2015-Jul-06 11:33N 37°57' E 023°38'0 0.0
2015-Jul-06 10:33N 37°57' E 023°38'0 0.0
2015-Jul-06 09:33N 37°57' E 023°38'0 0.0
2015-Jul-06 08:33N 37°57' E 023°38'0 0.0
2015-Jul-06 07:33N 37°57' E 023°38'0 0.0
2015-Jul-06 06:33N 37°57' E 023°38'0 0.0
2015-Jul-06 05:33N 37°57' E 023°38'0 0.0
2015-Jul-06 04:33N 37°57' E 023°38'0 0.0
2015-Jul-06 03:33N 37°57' E 023°38'2 1.6
2015-Jul-06 02:34N 37°56' E 023°37'2120.5
2015-Jul-06 01:33N 37°37' E 023°46'2222.1
2015-Jul-06 00:34N 37°15' E 023°51'19 1.4
2015-Jul-05 10:16N 37°33' E 023°44'1621.9
2015-Jul-05 09:33N 37°48' E 023°37'9 9.0
2015-Jul-05 08:33N 37°57' E 023°38'0 0.0
2015-Jul-05 07:33N 37°57' E 023°38'0 0.0
2015-Jul-05 06:33N 37°57' E 023°38'0 0.0
2015-Jul-05 05:33N 37°57' E 023°38'0 0.0
2015-Jul-05 04:33N 37°57' E 023°38'0 0.0
2015-Jul-05 03:33N 37°57' E 023°38'4 3.6
2015-Jul-05 02:33N 37°53' E 023°38'2120.6
2015-Jul-05 01:33N 37°34' E 023°47'3 0.1
2015-Jul-03 20:33N 37°31' E 023°45'2020.4
2015-Jul-03 19:33N 37°50' E 023°36'7 7.3
2015-Jul-03 18:33N 37°57' E 023°38'0 0.0
2015-Jul-03 17:33N 37°57' E 023°38'0 0.0
2015-Jul-03 16:33N 37°57' E 023°38'0 0.0
2015-Jul-03 15:33N 37°57' E 023°38'0 0.0
2015-Jul-03 14:33N 37°57' E 023°38'0 0.0
2015-Jul-03 13:33N 37°57' E 023°38'0 0.0
2015-Jul-03 12:33N 37°57' E 023°38'0 0.0
2015-Jul-03 11:33N 37°57' E 023°38'0 0.0
2015-Jul-03 10:33N 37°57' E 023°38'0 0.0
2015-Jul-03 09:33N 37°57' E 023°38'0 0.0
2015-Jul-03 08:33N 37°57' E 023°38'0 0.0
2015-Jul-03 07:33N 37°57' E 023°38'0 0.0
2015-Jul-03 06:33N 37°57' E 023°38'0 0.0
2015-Jul-03 05:33N 37°57' E 023°38'0 0.0
2015-Jul-03 04:33N 37°57' E 023°38'0 0.0
2015-Jul-03 03:33N 37°57' E 023°38'4 4.3
2015-Jul-03 02:33N 37°53' E 023°38'2020.2
2015-Jul-03 01:33N 37°33' E 023°47'3 0.1
2015-Jul-01 20:33N 37°30' E 023°44'2020.4
2015-Jul-01 19:33N 37°50' E 023°36'7 7.4
2015-Jul-01 18:33N 37°57' E 023°38'0 0.0
2015-Jul-01 17:33N 37°57' E 023°38'0 0.0
2015-Jul-01 16:33N 37°57' E 023°38'0 0.0
2015-Jul-01 15:33N 37°57' E 023°38'0 0.0
2015-Jul-01 14:33N 37°57' E 023°38'0 0.0
2015-Jul-01 13:33N 37°57' E 023°38'0 0.0
2015-Jul-01 12:33N 37°57' E 023°38'0 0.0
2015-Jul-01 11:33N 37°57' E 023°38'0 0.0
2015-Jul-01 10:33N 37°57' E 023°38'0 0.0
2015-Jul-01 09:33N 37°57' E 023°38'0 0.0
2015-Jul-01 08:33N 37°57' E 023°38'0 0.0
2015-Jul-01 07:33N 37°57' E 023°38'0 0.0
2015-Jul-01 06:33N 37°57' E 023°38'0 0.0
2015-Jul-01 05:33N 37°57' E 023°38'0 0.0
2015-Jul-01 04:33N 37°57' E 023°38'0 0.0
2015-Jul-01 03:33N 37°57' E 023°38'0 0.0
2015-Jul-01 02:33N 37°57' E 023°38'1312.8
2015-Jul-01 01:33N 37°45' E 023°44'4020.0
2015-Jun-30 23:33N 37°05' E 023°47'8019.4
2015-Jun-30 19:25N 35°47' E 024°11'8 0.5
2015-Jun-30 01:25N 35°39' E 024°16'10420.1
2015-Jun-29 20:15N 37°21' E 023°49'1420.3
2015-Jun-29 19:33N 37°34' E 023°44'2020.1
2015-Jun-29 18:33N 37°54' E 023°37'3 3.4
2015-Jun-29 17:34N 37°57' E 023°38'0 0.0
2015-Jun-29 16:33N 37°57' E 023°38'0 0.0
2015-Jun-29 15:33N 37°57' E 023°38'0 0.0
2015-Jun-29 14:33N 37°57' E 023°38'0 0.0
2015-Jun-29 13:33N 37°57' E 023°38'0 0.0
2015-Jun-29 12:33N 37°57' E 023°38'0 0.0
2015-Jun-29 11:33N 37°57' E 023°38'0 0.0
2015-Jun-29 10:33N 37°57' E 023°38'0 0.0
2015-Jun-29 09:34N 37°57' E 023°38'0 0.0
2015-Jun-29 08:34N 37°57' E 023°38'0 0.0
2015-Jun-29 07:33N 37°57' E 023°38'0 0.0
2015-Jun-29 06:33N 37°57' E 023°38'0 0.0
2015-Jun-29 05:33N 37°57' E 023°38'0 0.0
2015-Jun-29 04:33N 37°57' E 023°38'0 0.0
2015-Jun-29 03:34N 37°57' E 023°38'0 0.1
2015-Jun-29 02:33N 37°57' E 023°38'1413.7
2015-Jun-29 01:33N 37°44' E 023°44'2220.0
2015-Jun-29 00:26N 37°21' E 023°47'10 0.3
2015-Jun-27 19:32N 37°31' E 023°44'2020.5
2015-Jun-27 18:33N 37°51' E 023°37'6 6.3
2015-Jun-27 17:33N 37°57' E 023°38'0 0.0
2015-Jun-27 16:33N 37°57' E 023°38'0 0.0
2015-Jun-27 15:33N 37°57' E 023°38'0 0.0
2015-Jun-27 14:33N 37°57' E 023°38'0 0.0
2015-Jun-27 13:33N 37°57' E 023°38'0 0.0
2015-Jun-27 12:33N 37°57' E 023°38'0 0.0
2015-Jun-27 11:33N 37°57' E 023°38'0 0.0
2015-Jun-27 10:33N 37°57' E 023°38'0 0.0
2015-Jun-27 09:33N 37°57' E 023°38'0 0.0
2015-Jun-27 08:33N 37°57' E 023°38'0 0.0
2015-Jun-27 07:33N 37°57' E 023°38'0 0.0
2015-Jun-27 06:33N 37°57' E 023°38'0 0.0
2015-Jun-27 05:33N 37°57' E 023°38'0 0.0
2015-Jun-27 04:33N 37°57' E 023°38'0 0.0
2015-Jun-27 03:33N 37°57' E 023°38'0 0.0
2015-Jun-27 02:33N 37°57' E 023°38'  
Track history (hours):
 
Tides and Currents Weather Stations Pressure Air Temp Water Temp Dewpoint Dewpoint Depression Visibility Wind Speed Wind Dir Waves Ship Positions

Blue Galaxy

Last reported at 2015-Jul-07 02:23 UTC. Time now 2015-Jul-07 06:49 UTC.
Position N 35°37' E 024°17'.

Length 192 m; draft 6.7 m.

Type: Passenger vessel. MMSI: 239672000.

Date/timePositionNaut miles runAvg speedWind from/ knotsBaromVisibWave heightAir tempDewpointWater temp
2015-Jul-07 02:23N 35°37' E 024°17'1720.0
2015-Jul-07 01:33N 35°53' E 024°12'10020.1
2015-Jul-06 20:33N 37°31' E 023°45'2020.1
2015-Jul-06 19:33N 37°50' E 023°37'7 6.7
2015-Jul-06 18:33N 37°57' E 023°38'0 0.0
2015-Jul-06 17:33N 37°57' E 023°38'0 0.0
2015-Jul-06 16:33N 37°57' E 023°38'0 0.0
2015-Jul-06 15:33N 37°57' E 023°38'0 0.0
2015-Jul-06 14:33N 37°57' E 023°38'0 0.0
2015-Jul-06 13:33N 37°57' E 023°38'0 0.0
2015-Jul-06 12:33N 37°57' E 023°38'0 0.0
2015-Jul-06 11:33N 37°57' E 023°38'0 0.0
2015-Jul-06 10:33N 37°57' E 023°38'0 0.0
2015-Jul-06 09:33N 37°57' E 023°38'0 0.0
2015-Jul-06 08:33N 37°57' E 023°38'0 0.0
2015-Jul-06 07:33N 37°57' E 023°38'0 0.0
2015-Jul-06 06:33N 37°57' E 023°38'0 0.0
2015-Jul-06 05:33N 37°57' E 023°38'0 0.0
2015-Jul-06 04:33N 37°57' E 023°38'0 0.0
2015-Jul-06 03:33N 37°57' E 023°38'2 1.6
2015-Jul-06 02:34N 37°56' E 023°37'2120.5
2015-Jul-06 01:33N 37°37' E 023°46'2222.1
2015-Jul-06 00:34N 37°15' E 023°51'19 1.4
2015-Jul-05 10:16N 37°33' E 023°44'1621.9
2015-Jul-05 09:33N 37°48' E 023°37'9 9.0
2015-Jul-05 08:33N 37°57' E 023°38'0 0.0
2015-Jul-05 07:33N 37°57' E 023°38'0 0.0
2015-Jul-05 06:33N 37°57' E 023°38'0 0.0
2015-Jul-05 05:33N 37°57' E 023°38'0 0.0
2015-Jul-05 04:33N 37°57' E 023°38'0 0.0
2015-Jul-05 03:33N 37°57' E 023°38'4 3.6
2015-Jul-05 02:33N 37°53' E 023°38'2120.6
2015-Jul-05 01:33N 37°34' E 023°47'3 0.1
2015-Jul-03 20:33N 37°31' E 023°45'2020.4
2015-Jul-03 19:33N 37°50' E 023°36'7 7.3
2015-Jul-03 18:33N 37°57' E 023°38'0 0.0
2015-Jul-03 17:33N 37°57' E 023°38'0 0.0
2015-Jul-03 16:33N 37°57' E 023°38'0 0.0
2015-Jul-03 15:33N 37°57' E 023°38'0 0.0
2015-Jul-03 14:33N 37°57' E 023°38'0 0.0
2015-Jul-03 13:33N 37°57' E 023°38'0 0.0
2015-Jul-03 12:33N 37°57' E 023°38'0 0.0
2015-Jul-03 11:33N 37°57' E 023°38'0 0.0
2015-Jul-03 10:33N 37°57' E 023°38'0 0.0
2015-Jul-03 09:33N 37°57' E 023°38'0 0.0
2015-Jul-03 08:33N 37°57' E 023°38'0 0.0
2015-Jul-03 07:33N 37°57' E 023°38'0 0.0
2015-Jul-03 06:33N 37°57' E 023°38'0 0.0
2015-Jul-03 05:33N 37°57' E 023°38'0 0.0
2015-Jul-03 04:33N 37°57' E 023°38'0 0.0
2015-Jul-03 03:33N 37°57' E 023°38'4 4.3
2015-Jul-03 02:33N 37°53' E 023°38'2020.2
2015-Jul-03 01:33N 37°33' E 023°47'3 0.1
2015-Jul-01 20:33N 37°30' E 023°44'2020.4
2015-Jul-01 19:33N 37°50' E 023°36'7 7.4
2015-Jul-01 18:33N 37°57' E 023°38'0 0.0
2015-Jul-01 17:33N 37°57' E 023°38'0 0.0
2015-Jul-01 16:33N 37°57' E 023°38'0 0.0
2015-Jul-01 15:33N 37°57' E 023°38'0 0.0
2015-Jul-01 14:33N 37°57' E 023°38'0 0.0
2015-Jul-01 13:33N 37°57' E 023°38'0 0.0
2015-Jul-01 12:33N 37°57' E 023°38'0 0.0
2015-Jul-01 11:33N 37°57' E 023°38'0 0.0
2015-Jul-01 10:33N 37°57' E 023°38'0 0.0
2015-Jul-01 09:33N 37°57' E 023°38'0 0.0
2015-Jul-01 08:33N 37°57' E 023°38'0 0.0
2015-Jul-01 07:33N 37°57' E 023°38'0 0.0
2015-Jul-01 06:33N 37°57' E 023°38'0 0.0
2015-Jul-01 05:33N 37°57' E 023°38'0 0.0
2015-Jul-01 04:33N 37°57' E 023°38'0 0.0
2015-Jul-01 03:33N 37°57' E 023°38'0 0.0
2015-Jul-01 02:33N 37°57' E 023°38'1312.8
2015-Jul-01 01:33N 37°45' E 023°44'4020.0
2015-Jun-30 23:33N 37°05' E 023°47'8019.4
2015-Jun-30 19:25N 35°47' E 024°11'8 0.5
2015-Jun-30 01:25N 35°39' E 024°16'10420.1
2015-Jun-29 20:15N 37°21' E 023°49'1420.3
2015-Jun-29 19:33N 37°34' E 023°44'2020.1
2015-Jun-29 18:33N 37°54' E 023°37'3 3.4
2015-Jun-29 17:34N 37°57' E 023°38'0 0.0
2015-Jun-29 16:33N 37°57' E 023°38'0 0.0
2015-Jun-29 15:33N 37°57' E 023°38'0 0.0
2015-Jun-29 14:33N 37°57' E 023°38'0 0.0
2015-Jun-29 13:33N 37°57' E 023°38'0 0.0
2015-Jun-29 12:33N 37°57' E 023°38'0 0.0
2015-Jun-29 11:33N 37°57' E 023°38'0 0.0
2015-Jun-29 10:33N 37°57' E 023°38'0 0.0
2015-Jun-29 09:34N 37°57' E 023°38'0 0.0
2015-Jun-29 08:34N 37°57' E 023°38'0 0.0
2015-Jun-29 07:33N 37°57' E 023°38'0 0.0
2015-Jun-29 06:33N 37°57' E 023°38'0 0.0
2015-Jun-29 05:33N 37°57' E 023°38'0 0.0
2015-Jun-29 04:33N 37°57' E 023°38'0 0.0
2015-Jun-29 03:34N 37°57' E 023°38'0 0.1
2015-Jun-29 02:33N 37°57' E 023°38'1413.7
2015-Jun-29 01:33N 37°44' E 023°44'2220.0
2015-Jun-29 00:26N 37°21' E 023°47'10 0.3
2015-Jun-27 19:32N 37°31' E 023°44'2020.5
2015-Jun-27 18:33N 37°51' E 023°37'6 6.3
2015-Jun-27 17:33N 37°57' E 023°38'0 0.0
2015-Jun-27 16:33N 37°57' E 023°38'0 0.0
2015-Jun-27 15:33N 37°57' E 023°38'0 0.0
2015-Jun-27 14:33N 37°57' E 023°38'0 0.0
2015-Jun-27 13:33N 37°57' E 023°38'0 0.0
2015-Jun-27 12:33N 37°57' E 023°38'0 0.0
2015-Jun-27 11:33N 37°57' E 023°38'0 0.0
2015-Jun-27 10:33N 37°57' E 023°38'0 0.0
2015-Jun-27 09:33N 37°57' E 023°38'0 0.0
2015-Jun-27 08:33N 37°57' E 023°38'0 0.0
2015-Jun-27 07:33N 37°57' E 023°38'0 0.0
2015-Jun-27 06:33N 37°57' E 023°38'0 0.0
2015-Jun-27 05:33N 37°57' E 023°38'0 0.0
2015-Jun-27 04:33N 37°57' E 023°38'0 0.0
2015-Jun-27 03:33N 37°57' E 023°38'0 0.0
2015-Jun-27 02:33N 37°57' E 023°38'  

Dump ship's entire track history